Time;durP1;ratioP1;P1;durP2;ratioP2;P2;SDS_P1;SDS_P2;PMS_P1;PMS_P2;Temp;Humidity;BMP_temperature;BMP_pressure;BME280_temperature;BME280_humidity;BME280_pressure;Samples;Min_cycle;Max_cycle;Signal;HPM_P1;HPM_P2
2022/02/08 00:01:00;;;;;;;10.98;4.00;;;;;;;4.08;36.69;99713.31;5089284;28;20040;-94
2022/02/08 00:03:26;;;;;;;10.00;4.05;;;;;;;4.26;36.29;99725.84;5091234;28;20123;-93
2022/02/08 00:06:18;;;;;;;10.02;4.30;;;;;;;4.01;37.04;99700.91;5091715;28;20067;-93
2022/02/08 00:08:39;;;;;;;11.00;4.45;;;;;;;3.74;39.82;99711.91;5090773;28;20135;-93
2022/02/08 00:11:05;;;;;;;8.27;3.30;;;;;;;3.61;39.58;99729.25;5086606;28;20041;-93
2022/02/08 00:13:31;;;;;;;7.10;3.67;;;;;;;3.72;39.08;99761.00;5090078;28;20033;-93
2022/02/08 00:15:57;;;;;;;9.88;3.80;;;;;;;3.42;38.63;99728.94;5086870;28;20037;-94
2022/02/08 00:18:23;;;;;;;9.40;3.53;;;;;;;3.60;39.48;99744.16;5088731;28;20518;-94
2022/02/08 00:20:49;;;;;;;8.70;3.22;;;;;;;3.37;41.44;99737.63;5091190;28;20074;-92
2022/02/08 00:23:15;;;;;;;8.90;3.58;;;;;;;2.98;43.55;99739.53;5091020;28;20058;-92
2022/02/08 00:25:43;;;;;;;8.18;4.00;;;;;;;2.92;42.48;99726.28;5091412;28;20131;-93
2022/02/08 00:28:09;;;;;;;5.83;3.07;;;;;;;2.94;46.07;99770.97;5091439;28;20048;-93
2022/02/08 00:30:35;;;;;;;8.73;3.03;;;;;;;2.80;47.42;99761.09;5086698;28;20048;-92
2022/02/08 00:33:01;;;;;;;12.90;6.65;;;;;;;2.54;50.23;99757.94;5082849;28;20056;-93
2022/02/08 00:35:27;;;;;;;13.27;6.45;;;;;;;2.26;54.52;99780.94;5090968;28;20543;-92
2022/02/08 00:37:53;;;;;;;13.10;6.30;;;;;;;1.97;56.63;99784.63;5091093;28;20127;-93
2022/02/08 00:40:20;;;;;;;14.93;5.95;;;;;;;1.78;56.30;99792.06;5083998;28;20047;-93
2022/02/08 00:42:48;;;;;;;11.68;5.15;;;;;;;1.51;59.16;99807.09;5091096;28;20062;-93
2022/02/08 00:48:15;;;;;;;12.77;6.88;;;;;;;0.98;60.87;99812.69;5104370;27;20368;-93
2022/02/08 00:50:48;;;;;;;12.10;5.40;;;;;;;0.73;60.77;99817.19;5069758;28;20124;-93
2022/02/08 00:53:14;;;;;;;6.97;3.72;;;;;;;0.65;56.81;99823.97;5071663;28;20037;-93
2022/02/08 00:55:40;;;;;;;8.98;3.33;;;;;;;0.53;56.99;99808.75;5063254;28;20103;-93
2022/02/08 00:58:05;;;;;;;8.50;3.60;;;;;;;0.66;57.25;99828.34;5071433;28;20041;-92
2022/02/08 01:00:33;;;;;;;6.10;2.80;;;;;;;0.59;57.97;99822.03;5070103;28;20164;-92
2022/02/08 01:02:59;;;;;;;8.63;2.88;;;;;;;0.58;55.79;99820.25;5069278;28;20447;-92
2022/02/08 01:05:26;;;;;;;7.50;2.63;;;;;;;0.70;55.64;99822.34;5071045;28;20047;-92
2022/02/08 01:07:52;;;;;;;8.55;3.28;;;;;;;0.65;56.75;99821.34;5071329;28;20040;-93
2022/02/08 01:10:19;;;;;;;9.52;3.90;;;;;;;0.85;54.22;99840.25;5071380;28;20493;-93
2022/02/08 01:12:47;;;;;;;9.10;3.70;;;;;;;0.81;55.05;99826.16;5071060;28;20493;-92
2022/02/08 01:15:15;;;;;;;7.93;3.63;;;;;;;0.93;56.19;99850.91;5070390;28;20111;-95
2022/02/08 01:17:41;;;;;;;7.05;3.80;;;;;;;0.82;57.65;99838.44;5071512;28;20128;-91
2022/02/08 01:20:12;;;;;;;10.60;3.80;;;;;;;0.73;60.85;99824.16;5071093;28;20032;-93
2022/02/08 01:22:41;;;;;;;8.48;3.80;;;;;;;0.76;60.95;99851.34;5071012;28;20040;-93
2022/02/08 01:25:13;;;;;;;6.07;3.03;;;;;;;0.60;58.28;99841.25;5071342;28;20049;-93
2022/02/08 01:27:46;;;;;;;9.95;3.72;;;;;;;0.82;54.63;99850.59;5069213;28;20036;-91
2022/02/08 01:30:26;;;;;;;9.07;3.60;;;;;;;0.68;55.33;99836.25;5068446;28;20079;-92
2022/02/08 01:33:19;;;;;;;7.53;3.47;;;;;;;0.66;56.26;99838.81;5070582;28;20041;-91
2022/02/08 01:38:28;;;;;;;9.15;3.20;;;;;;;0.72;55.80;99856.44;5104613;27;20368;-93
2022/02/08 01:44:12;;;;;;;6.22;3.00;;;;;;;0.64;56.99;99840.50;5107673;27;20412;-94
2022/02/08 01:49:55;;;;;;;8.20;2.75;;;;;;;0.88;56.40;99861.28;5091747;27;20381;-93
2022/02/08 01:52:21;;;;;;;7.40;2.83;;;;;;;0.86;57.61;99867.31;5091836;28;20049;-93
2022/02/08 01:54:47;;;;;;;7.85;2.63;;;;;;;0.78;56.58;99859.22;5091787;28;20044;-94
2022/02/08 01:57:13;;;;;;;6.13;2.90;;;;;;;0.81;56.15;99848.84;5091616;28;20044;-92
2022/02/08 01:59:39;;;;;;;5.15;2.33;;;;;;;0.86;56.51;99847.25;5091530;28;20084;-93
2022/02/08 02:02:05;;;;;;;6.07;2.92;;;;;;;1.02;56.21;99844.22;5090707;28;20044;-94
2022/02/08 02:04:31;;;;;;;6.97;2.90;;;;;;;1.51;52.51;99859.53;5091909;28;20051;-92
2022/02/08 02:07:01;;;;;;;8.25;2.78;;;;;;;1.60;52.21;99838.78;5091531;28;20040;-93
2022/02/08 02:09:27;;;;;;;5.07;2.35;;;;;;;1.58;53.13;99837.84;5091912;28;20048;-92
2022/02/08 02:11:54;;;;;;;11.07;2.90;;;;;;;1.47;56.17;99834.94;5092419;28;20048;-93
2022/02/08 02:14:20;;;;;;;8.02;3.05;;;;;;;1.36;53.49;99833.78;5091653;28;20078;-93
2022/02/08 02:16:56;;;;;;;6.45;2.92;;;;;;;1.34;53.42;99841.59;5090577;28;20531;-92
2022/02/08 02:19:24;;;;;;;7.13;3.30;;;;;;;1.20;53.54;99858.69;5091119;28;20127;-92
2022/02/08 02:21:50;;;;;;;9.63;3.53;;;;;;;1.09;53.93;99849.66;5091530;28;20512;-92
2022/02/08 02:24:17;;;;;;;8.00;3.60;;;;;;;1.17;54.82;99876.94;5091290;28;20048;-93
2022/02/08 02:26:43;;;;;;;11.15;4.25;;;;;;;0.86;54.96;99842.00;5102533;28;20404;-92
2022/02/08 02:29:13;;;;;;;7.43;3.58;;;;;;;1.07;54.65;99885.38;5101102;28;20131;-92
2022/02/08 02:31:40;;;;;;;9.15;3.70;;;;;;;0.95;55.13;99850.13;5091094;28;20044;-93
2022/02/08 02:34:05;;;;;;;8.30;3.60;;;;;;;0.99;54.48;99856.34;5091905;28;20036;-89
2022/02/08 02:36:31;;;;;;;7.07;3.42;;;;;;;1.12;55.89;99878.53;5086585;28;20098;-93
2022/02/08 02:38:57;;;;;;;6.70;3.50;;;;;;;1.11;56.77;99875.03;5090765;28;20123;-92
2022/02/08 02:41:24;;;;;;;5.43;2.65;;;;;;;1.03;55.60;99846.00;5090962;28;20068;-92
2022/02/08 02:43:50;;;;;;;6.95;3.38;;;;;;;1.78;50.55;99862.00;5091457;28;20041;-92
2022/02/08 02:46:16;;;;;;;6.40;3.38;;;;;;;1.98;52.02;99873.00;5089851;28;20094;-92
2022/02/08 02:48:42;;;;;;;12.30;5.13;;;;;;;1.71;56.59;99866.16;5090723;28;20060;-93
2022/02/08 02:51:13;;;;;;;12.18;5.10;;;;;;;1.20;58.74;99848.22;5091062;28;20044;-93
2022/02/08 02:53:38;;;;;;;14.88;6.35;;;;;;;1.00;59.96;99876.47;5090779;28;20440;-94
2022/02/08 02:56:05;;;;;;;13.27;5.97;;;;;;;0.67;61.95;99886.81;5090859;28;20040;-92
2022/02/08 02:58:35;;;;;;;11.82;6.03;;;;;;;0.19;63.22;99856.53;5090641;28;20032;-92
2022/02/08 03:01:29;;;;;;;12.93;6.40;;;;;;;-0.04;64.78;99866.28;5075449;28;20102;-93
2022/02/08 03:18:46;;;;;;;12.25;4.45;;;;;;;-0.28;63.34;99869.84;5091896;27;20358;-93
2022/02/08 03:21:12;;;;;;;12.48;4.60;;;;;;;-0.09;60.67;99893.97;5091983;28;20038;-92
2022/02/08 03:23:39;;;;;;;9.57;4.72;;;;;;;-0.04;62.19;99895.91;5092108;28;20049;-94
2022/02/08 03:26:06;;;;;;;9.68;3.83;;;;;;;-0.04;61.80;99884.59;5092929;28;20036;-92
2022/02/08 03:28:32;;;;;;;7.05;3.47;;;;;;;0.18;61.58;99884.44;5091678;28;20123;-92
2022/02/08 03:30:58;;;;;;;5.95;3.10;;;;;;;0.70;59.37;99900.88;5090689;28;20052;-95
2022/02/08 03:33:26;;;;;;;6.68;2.50;;;;;;;2.25;51.45;99884.13;5092089;28;20055;-94
2022/02/08 03:35:55;;;;;;;5.13;2.40;;;;;;;3.36;47.61;99868.19;5092472;28;20071;-92
2022/02/08 03:38:27;;;;;;;6.53;2.58;;;;;;;3.09;52.12;99882.53;5091956;28;20392;-94
2022/02/08 03:40:53;;;;;;;6.32;2.53;;;;;;;2.53;54.29;99881.28;5092069;28;20562;-94
2022/02/08 03:46:10;;;;;;;7.35;1.90;;;;;;;2.64;51.52;99904.31;5153280;27;20727;-93
2022/02/08 03:48:38;;;;;;;6.95;2.10;;;;;;;3.29;46.18;99885.56;5154813;27;20043;-94
2022/02/08 03:51:10;;;;;;;4.82;2.20;;;;;;;3.34;48.83;99898.81;5153777;27;20039;-93
2022/02/08 03:53:37;;;;;;;5.65;2.30;;;;;;;3.06;50.59;99911.38;5153599;27;20046;-93
2022/02/08 03:56:04;;;;;;;3.25;2.10;;;;;;;2.78;52.28;99911.63;5153633;27;20111;-94
2022/02/08 03:58:30;;;;;;;4.32;2.20;;;;;;;2.40;54.25;99920.38;5153989;27;20368;-92
2022/02/08 04:03:53;;;;;;;6.45;2.78;;;;;;;1.22;57.40;99919.88;5130183;27;20884;-93
2022/02/08 04:06:19;;;;;;;5.22;2.70;;;;;;;0.97;58.15;99924.38;5123858;28;20390;-93
2022/02/08 04:08:45;;;;;;;6.07;2.58;;;;;;;0.72;58.76;99912.28;5121072;28;20074;-92
2022/02/08 04:11:10;;;;;;;6.55;3.40;;;;;;;0.72;59.08;99925.38;5123688;28;20076;-93
2022/02/08 04:13:47;;;;;;;12.43;5.43;;;;;;;0.48;61.76;99916.75;5119773;28;20060;-91
2022/02/08 04:31:31;;;;;;;17.67;6.05;;;;;;;-0.48;67.89;99971.06;5145270;27;20390;-93
2022/02/08 04:45:55;;;;;;;15.18;6.30;;;;;;;-1.18;69.94;99979.72;5152456;27;20379;-94
2022/02/08 04:51:12;;;;;;;11.77;5.32;;;;;;;-1.34;69.89;99987.78;5125103;27;20875;-93
2022/02/08 04:53:45;;;;;;;12.35;4.85;;;;;;;-1.36;70.43;99984.22;5071608;28;20119;-94
2022/02/08 04:56:21;;;;;;;9.20;4.97;;;;;;;-1.61;71.72;99964.06;5071567;28;20040;-92
2022/02/08 04:58:57;;;;;;;11.50;5.72;;;;;;;-1.64;72.21;99971.78;5071779;28;20045;-92
2022/02/08 05:01:35;;;;;;;11.65;5.93;;;;;;;-1.63;73.08;99999.63;5065937;28;20048;-93
2022/02/08 05:37:22;;;;;;;12.48;6.25;;;;;;;-1.90;75.44;100028.94;5105028;27;20372;-94
2022/02/08 05:46:14;;;;;;;11.02;5.15;;;;;;;-2.02;73.76;100025.81;5138850;27;20372;-94
2022/02/08 05:48:35;;;;;;;12.25;6.18;;;;;;;-2.15;74.54;100020.03;5120597;27;20048;-92
2022/02/08 05:51:12;;;;;;;12.80;6.10;;;;;;;-2.20;75.69;100020.69;5151271;27;20035;-93
2022/02/08 05:56:25;;;;;;;9.55;4.30;;;;;;;-2.08;74.54;100044.69;5133175;27;20863;-92
2022/02/08 05:58:51;;;;;;;11.25;4.35;;;;;;;-2.09;75.71;100048.09;5132863;28;20136;-93
2022/02/08 06:01:16;;;;;;;13.60;5.43;;;;;;;-2.07;76.49;100073.41;5132958;28;20396;-95
2022/02/08 06:03:42;;;;;;;10.95;5.65;;;;;;;-2.23;76.80;100064.81;5133014;28;20093;-95
2022/02/08 06:06:08;;;;;;;12.73;6.00;;;;;;;-2.12;76.99;100081.84;5133501;28;20047;-94
2022/02/08 06:08:34;;;;;;;14.55;5.65;;;;;;;-2.25;77.01;100056.09;5133126;28;20573;-94
2022/02/08 06:11:03;;;;;;;13.90;5.18;;;;;;;-2.21;77.95;100071.91;5133004;28;20039;-93
2022/02/08 06:13:31;;;;;;;10.55;5.72;;;;;;;-2.11;77.16;100092.31;5132860;28;20047;-95
2022/02/08 06:16:01;;;;;;;13.82;5.47;;;;;;;-2.23;76.96;100083.97;5132943;28;20047;-93
2022/02/08 06:18:27;;;;;;;11.98;5.18;;;;;;;-2.25;76.28;100089.97;5133291;28;20042;-94
2022/02/08 06:20:53;;;;;;;11.50;5.40;;;;;;;-2.28;76.71;100091.59;5133150;28;20040;-94
2022/02/08 06:23:19;;;;;;;12.30;4.95;;;;;;;-2.34;77.06;100093.91;5133492;28;20039;-94
2022/02/08 06:25:45;;;;;;;12.25;5.28;;;;;;;-2.23;77.74;100120.47;5133286;28;20042;-93
2022/02/08 06:28:12;;;;;;;16.50;6.20;;;;;;;-2.29;77.32;100120.19;5133280;28;20497;-95
2022/02/08 06:30:39;;;;;;;9.70;5.03;;;;;;;-2.42;77.67;100089.19;5133078;28;20074;-95
2022/02/08 06:33:06;;;;;;;10.07;5.05;;;;;;;-2.18;77.47;100128.47;5133080;28;20123;-94
2022/02/08 06:35:34;;;;;;;13.48;6.05;;;;;;;-2.14;75.32;100118.25;5132959;28;20085;-95
2022/02/08 06:38:01;;;;;;;13.35;5.55;;;;;;;-2.25;76.97;100105.59;5133411;28;20047;-96
2022/02/08 06:40:28;;;;;;;14.23;5.72;;;;;;;-2.18;76.66;100125.88;5132453;28;20039;-94
2022/02/08 06:42:57;;;;;;;13.68;6.38;;;;;;;-2.18;75.77;100112.84;5132785;28;20039;-94
2022/02/08 06:45:23;;;;;;;10.27;5.72;;;;;;;-1.96;75.33;100135.56;5133360;28;20071;-94
2022/02/08 06:47:52;;;;;;;11.45;5.28;;;;;;;-1.86;75.40;100137.75;5134672;28;20043;-95
2022/02/08 06:50:19;;;;;;;10.48;5.57;;;;;;;-1.72;74.62;100135.75;5132928;28;20492;-95
2022/02/08 06:52:45;;;;;;;9.32;5.22;;;;;;;-1.75;76.32;100127.81;5132498;28;20117;-95
2022/02/08 06:55:12;;;;;;;13.10;5.18;;;;;;;-1.62;75.88;100137.06;5132203;28;20109;-93
2022/02/08 06:57:49;;;;;;;10.27;4.93;;;;;;;-1.45;75.23;100144.78;5132073;28;20048;-95
2022/02/08 07:00:18;;;;;;;11.43;5.35;;;;;;;-1.31;74.85;100149.69;5132315;28;20563;-95
2022/02/08 07:02:44;;;;;;;13.50;5.40;;;;;;;-1.11;70.24;100133.13;5132689;28;20042;-93
2022/02/08 07:05:11;;;;;;;14.98;7.22;;;;;;;-0.79;70.03;100148.34;5132261;28;20391;-95
2022/02/08 07:07:37;;;;;;;11.57;5.72;;;;;;;-0.69;68.63;100148.78;5119642;28;20089;-94
2022/02/08 07:10:07;;;;;;;13.98;6.15;;;;;;;-0.59;66.87;100138.69;5118600;28;20396;-96
2022/02/08 07:12:40;;;;;;;11.05;5.80;;;;;;;-0.64;66.09;100115.88;5118424;28;20048;-95
2022/02/08 07:15:11;;;;;;;18.90;6.90;;;;;;;-0.59;65.63;100112.56;5118127;28;20048;-95
2022/02/08 07:17:37;;;;;;;16.30;6.25;;;;;;;-0.47;66.03;100139.19;5118533;28;20043;-95
2022/02/08 07:20:06;;;;;;;19.42;6.25;;;;;;;-0.42;67.22;100137.63;5118303;28;20069;-94
2022/02/08 07:22:34;;;;;;;20.08;8.20;;;;;;;-0.39;69.05;100132.53;5118263;28;20455;-95
2022/02/08 07:25:01;;;;;;;24.05;11.13;;;;;;;-0.36;69.84;100132.66;5118468;28;20042;-95
2022/02/08 07:27:28;;;;;;;35.55;14.98;;;;;;;-0.21;69.67;100150.66;5119205;28;20043;-94
2022/02/08 07:29:55;;;;;;;30.23;11.05;;;;;;;-0.01;69.48;100167.97;5117961;28;20032;-94
2022/02/08 07:32:29;;;;;;;25.10;9.35;;;;;;;-0.12;68.93;100139.66;5117644;28;20123;-95
2022/02/08 07:38:23;;;;;;;22.45;9.25;;;;;;;0.20;67.79;100174.84;5113557;27;20120;-94
2022/02/08 07:43:35;;;;;;;20.50;9.60;;;;;;;0.34;67.23;100159.66;5113375;27;20377;-94
2022/02/08 07:46:06;;;;;;;18.67;9.00;;;;;;;0.47;67.01;100171.44;5113434;28;20070;-94
2022/02/08 07:48:32;;;;;;;22.60;10.75;;;;;;;0.48;67.34;100161.03;5113315;28;20047;-94
2022/02/08 07:50:58;;;;;;;21.02;10.05;;;;;;;0.57;66.79;100158.75;5113715;28;20116;-94
2022/02/08 07:53:27;;;;;;;21.13;10.40;;;;;;;0.95;65.34;100180.13;5113381;28;20071;-93
2022/02/08 07:55:54;;;;;;;23.85;11.75;;;;;;;1.05;64.87;100178.72;5112887;28;20040;-93
2022/02/08 07:58:19;;;;;;;20.83;10.40;;;;;;;1.22;64.18;100181.91;5115170;28;20044;-92
2022/02/08 08:00:47;;;;;;;25.80;10.52;;;;;;;1.31;63.61;100195.31;5113696;28;20040;-93
2022/02/08 08:03:14;;;;;;;17.67;8.80;;;;;;;1.52;63.38;100209.94;5115796;28;20043;-93
2022/02/08 08:05:40;;;;;;;21.05;9.20;;;;;;;1.40;63.09;100189.47;5113369;28;20043;-94
2022/02/08 08:08:08;;;;;;;23.50;9.40;;;;;;;1.48;62.70;100192.34;5114639;28;20075;-94
2022/02/08 08:10:35;;;;;;;22.80;10.63;;;;;;;1.72;62.66;100227.22;5113568;28;20370;-94
2022/02/08 08:13:02;;;;;;;23.27;9.30;;;;;;;1.70;62.43;100218.41;5113871;28;20036;-93
2022/02/08 08:18:25;;;;;;;17.13;8.93;;;;;;;2.00;61.09;100238.59;5147872;27;20381;-93
2022/02/08 08:20:51;;;;;;;23.58;8.50;;;;;;;1.89;60.10;100209.41;5113400;28;20055;-93
2022/02/08 08:23:18;;;;;;;18.60;8.10;;;;;;;2.05;59.27;100218.59;5113063;28;20036;-93
2022/02/08 08:25:45;;;;;;;20.67;8.73;;;;;;;2.10;59.10;100209.13;5113180;28;20044;-94
2022/02/08 08:28:11;;;;;;;20.83;9.15;;;;;;;2.22;59.79;100206.00;5112991;28;20067;-94
2022/02/08 08:30:38;;;;;;;20.05;10.18;;;;;;;2.57;59.49;100227.13;5113566;28;20035;-93
2022/02/08 08:33:06;;;;;;;17.70;8.45;;;;;;;2.79;59.10;100233.88;5113218;28;20047;-94
2022/02/08 08:35:35;;;;;;;24.60;9.27;;;;;;;2.87;57.38;100217.47;5113254;28;20035;-93
2022/02/08 08:38:04;;;;;;;13.50;7.03;;;;;;;3.06;56.04;100210.97;5112688;28;20292;-94
2022/02/08 08:52:07;;;;;;;21.33;9.77;;;;;;;4.51;55.38;100222.22;5101773;27;20373;-93
2022/02/08 08:54:33;;;;;;;22.25;11.27;;;;;;;4.69;53.52;100227.00;5072343;28;20060;-94
2022/02/08 08:56:59;;;;;;;23.58;11.45;;;;;;;4.77;53.20;100221.88;5073263;28;20069;-94
2022/02/08 08:59:25;;;;;;;25.77;11.73;;;;;;;4.78;52.96;100226.31;5073123;28;20040;-93
2022/02/08 09:01:51;;;;;;;22.42;10.52;;;;;;;4.72;51.42;100219.16;5072679;28;20041;-93
2022/02/08 09:04:19;;;;;;;18.90;8.32;;;;;;;4.78;50.43;100228.94;5072733;28;20075;-95
2022/02/08 09:06:47;;;;;;;22.35;8.50;;;;;;;4.86;50.13;100224.72;5073270;28;20044;-94
2022/02/08 09:09:17;;;;;;;32.33;11.75;;;;;;;4.91;49.57;100237.09;5072949;28;20056;-94
2022/02/08 09:29:19;;;;;;;21.83;8.88;;;;;;;5.23;48.53;100231.56;5113374;28;20073;-95
2022/02/08 09:35:08;;;;;;;24.35;8.05;;;;;;;5.61;47.66;100233.94;5134308;27;20124;-94
2022/02/08 09:37:35;;;;;;;24.75;9.32;;;;;;;5.77;46.71;100245.66;5113333;28;20055;-95
2022/02/08 09:40:03;;;;;;;29.25;9.93;;;;;;;5.80;47.85;100255.38;5113318;28;20050;-93
2022/02/08 09:42:29;;;;;;;21.35;9.40;;;;;;;5.87;47.84;100242.28;5114017;28;20435;-93
2022/02/08 09:44:55;;;;;;;20.90;10.57;;;;;;;5.96;47.25;100237.19;5112829;28;20093;-94
2022/02/08 09:47:33;;;;;;;22.50;9.73;;;;;;;6.08;47.06;100241.75;5113195;28;20093;-94
2022/02/08 09:50:06;;;;;;;19.10;8.43;;;;;;;6.38;46.96;100264.22;5112258;28;20043;-93
2022/02/08 09:52:34;;;;;;;19.27;8.88;;;;;;;6.42;46.66;100243.97;5103847;28;20071;-93
2022/02/08 09:54:59;;;;;;;19.40;8.63;;;;;;;6.54;45.95;100252.06;5111900;28;20040;-95
2022/02/08 09:57:25;;;;;;;21.27;9.80;;;;;;;6.55;45.75;100238.91;5112554;28;20046;-94
2022/02/08 09:59:51;;;;;;;24.25;10.00;;;;;;;6.59;46.01;100247.72;5112973;28;20489;-95
2022/02/08 10:02:18;;;;;;;24.10;9.68;;;;;;;6.65;46.25;100239.88;5112718;28;20509;-93
2022/02/08 10:04:44;;;;;;;20.65;10.52;;;;;;;6.83;46.18;100248.91;5113941;28;20106;-94
2022/02/08 10:07:12;;;;;;;22.52;10.27;;;;;;;6.95;46.38;100252.56;5113018;28;20181;-94
2022/02/08 10:09:40;;;;;;;18.25;9.80;;;;;;;6.96;45.42;100243.78;5106116;28;20048;-91
2022/02/08 10:12:08;;;;;;;20.95;10.18;;;;;;;6.96;45.79;100240.22;5112780;28;20115;-93
2022/02/08 10:18:52;;;;;;;21.25;9.93;;;;;;;6.97;45.74;100232.31;5094494;28;20051;-92
2022/02/08 10:23:36;;;;;;;22.92;10.38;;;;;;;7.18;45.91;100236.97;5111815;27;20380;-93
2022/02/08 10:26:05;;;;;;;21.75;10.65;;;;;;;7.33;45.23;100237.97;5112150;28;20044;-93
2022/02/08 10:28:51;;;;;;;24.30;10.57;;;;;;;7.56;45.45;100240.84;5112511;28;20042;-93
2022/02/08 10:40:10;;;;;;;22.75;10.95;;;;;;;7.79;44.56;100241.03;5104774;27;20369;-93
2022/02/08 10:42:38;;;;;;;23.13;10.13;;;;;;;7.85;44.77;100234.88;5072797;28;20079;-93
2022/02/08 10:45:16;;;;;;;24.50;10.80;;;;;;;7.82;44.98;100214.56;5072917;28;20052;-94
2022/02/08 10:47:45;;;;;;;22.90;9.68;;;;;;;7.74;45.58;100214.53;5072415;28;20517;-93
2022/02/08 10:50:12;;;;;;;23.55;8.32;;;;;;;7.92;45.68;100237.59;5072174;28;20055;-93
2022/02/08 10:52:41;;;;;;;20.55;8.80;;;;;;;7.89;45.03;100211.06;5072626;28;20041;-94
2022/02/08 10:55:19;;;;;;;16.40;7.90;;;;;;;8.03;44.31;100235.91;5072601;28;20048;-93
2022/02/08 10:57:53;;;;;;;21.05;10.27;;;;;;;7.91;43.78;100195.22;5069910;28;20047;-93
2022/02/08 11:00:30;;;;;;;19.17;9.65;;;;;;;7.74;44.64;100192.44;5071120;28;20052;-92
2022/02/08 11:03:00;;;;;;;23.52;9.38;;;;;;;7.92;44.90;100215.53;5071827;28;20120;-93
2022/02/08 11:20:26;;;;;;;21.23;9.25;;;;;;;8.19;46.78;100199.78;5164173;27;20383;-92
2022/02/08 11:25:42;;;;;;;18.27;8.40;;;;;;;8.25;45.52;100196.31;5112691;27;20399;-93
2022/02/08 11:28:16;;;;;;;18.00;8.85;;;;;;;8.27;42.62;100183.94;5103933;28;20044;-95
2022/02/08 11:30:59;;;;;;;12.85;6.97;;;;;;;8.36;40.14;100186.63;5106494;28;20046;-93
2022/02/08 11:48:29;;;;;;;17.40;8.07;;;;;;;8.58;41.28;100178.81;5092826;27;20397;-93
2022/02/08 11:51:19;;;;;;;13.70;7.40;;;;;;;8.68;40.38;100185.03;5085213;28;20040;-92
2022/02/08 11:53:48;;;;;;;17.02;7.70;;;;;;;8.87;37.68;100201.88;5091452;28;20043;-94
2022/02/08 11:56:26;;;;;;;14.90;7.68;;;;;;;8.79;37.93;100170.91;5092590;28;20044;-94
2022/02/08 12:02:25;;;;;;;17.17;6.50;;;;;;;9.00;35.66;100185.09;5110717;27;20404;-93
2022/02/08 12:07:54;;;;;;;9.23;4.80;;;;;;;9.11;32.24;100183.38;5099615;27;20406;-93
2022/02/08 12:31:55;;;;;;;14.43;4.68;;;;;;;9.52;32.03;100165.69;5106359;27;20763;-92
2022/02/08 12:34:42;;;;;;;13.30;4.88;;;;;;;9.56;31.17;100168.31;5086332;28;20044;-93
2022/02/08 12:58:12;;;;;;;12.15;6.15;;;;;;;9.72;34.40;100147.09;5108866;27;20385;-94
2022/02/08 13:00:51;;;;;;;14.43;5.85;;;;;;;9.82;33.43;100147.06;5093399;28;20516;-94
2022/02/08 13:03:44;;;;;;;11.98;5.75;;;;;;;9.81;34.39;100129.34;5092651;28;20044;-93
2022/02/08 13:06:37;;;;;;;12.07;5.40;;;;;;;9.85;33.41;100139.09;5092489;28;20036;-94
2022/02/08 13:15:56;;;;;;;11.65;5.55;;;;;;;9.99;33.25;100115.13;5091679;28;20048;-94
2022/02/08 14:08:36;;;;;;;11.60;5.85;;;;;;;10.38;32.36;100109.69;5111242;27;20369;-94
2022/02/08 14:11:21;;;;;;;12.05;5.75;;;;;;;10.33;32.29;100104.41;5111011;28;20055;-94
2022/02/08 14:14:06;;;;;;;10.88;5.80;;;;;;;10.37;32.11;100110.59;5112843;28;20036;-95
2022/02/08 14:19:31;;;;;;;9.07;4.95;;;;;;;10.37;32.27;100097.31;5112687;27;20776;-93
2022/02/08 14:22:10;;;;;;;9.68;5.25;;;;;;;10.37;31.58;100111.47;5114103;28;20032;-93
2022/02/08 14:30:28;;;;;;;19.30;8.57;;;;;;;10.31;32.04;100114.16;5091501;27;20355;-94
2022/02/08 15:10:54;;;;;;;13.73;6.95;;;;;;;10.37;28.77;100111.47;5133478;27;20387;-94
2022/02/08 15:13:24;;;;;;;8.43;4.82;;;;;;;10.42;28.40;100117.66;5116216;28;20439;-94
2022/02/08 15:18:43;;;;;;;9.98;5.60;;;;;;;10.43;28.01;100121.19;5091816;27;20370;-92
2022/02/08 15:21:14;;;;;;;9.80;5.22;;;;;;;10.46;28.26;100124.72;5092390;28;20083;-94
2022/02/08 15:23:40;;;;;;;19.95;9.57;;;;;;;10.30;27.99;100109.75;5092318;28;20040;-94
2022/02/08 15:26:06;;;;;;;25.33;11.52;;;;;;;10.37;27.73;100116.78;5093078;28;20051;-92
2022/02/08 15:28:32;;;;;;;26.17;13.02;;;;;;;10.26;28.23;100103.53;5092814;28;20460;-94
2022/02/08 15:30:58;;;;;;;29.75;12.68;;;;;;;10.29;28.35;100129.22;5092519;28;20370;-93
2022/02/08 15:33:25;;;;;;;27.67;12.73;;;;;;;10.13;28.43;100107.13;5092657;28;20105;-93
2022/02/08 15:35:53;;;;;;;34.17;17.20;;;;;;;10.21;28.88;100138.97;5092383;28;20118;-93
2022/02/08 15:38:21;;;;;;;14.95;6.65;;;;;;;10.01;30.92;100139.91;5092563;28;20124;-94
2022/02/08 15:40:47;;;;;;;17.10;9.38;;;;;;;9.78;30.15;100123.16;5092113;28;20033;-95
2022/02/08 15:43:14;;;;;;;27.50;10.70;;;;;;;9.71;29.62;100116.97;5092790;28;20040;-94
2022/02/08 15:45:49;;;;;;;46.65;15.68;;;;;;;9.62;29.58;100109.91;5091671;28;20047;-95
2022/02/08 15:48:20;;;;;;;119.18;30.13;;;;;;;9.64;29.72;100132.03;5092356;28;20032;-95
2022/02/08 16:08:35;;;;;;;100.60;18.15;;;;;;;8.63;37.92;100116.97;5059547;27;20400;-96
2022/02/08 16:47:57;;;;;;;11.20;5.75;;;;;;;6.90;43.81;100172.31;5111222;27;20406;-95
2022/02/08 16:53:32;;;;;;;14.10;7.13;;;;;;;6.31;45.17;100149.63;5098892;27;20397;-93
2022/02/08 16:56:08;;;;;;;12.50;6.80;;;;;;;6.14;43.88;100143.25;5099445;28;20110;-96
2022/02/08 16:58:48;;;;;;;11.57;6.82;;;;;;;6.06;46.15;100145.78;5099228;28;20040;-95
2022/02/08 17:01:18;;;;;;;13.05;6.10;;;;;;;6.25;45.11;100175.97;5098677;28;20040;-94
2022/02/08 17:03:45;;;;;;;;;;;;;;;6.33;44.80;100190.16;5099358;28;20032;-94
2022/02/08 17:06:17;;;;;;;9.95;5.63;;;;;;;6.13;45.91;100159.94;5099633;28;19920;-94
2022/02/08 17:08:45;;;;;;;12.55;6.57;;;;;;;6.14;43.73;100164.38;5098136;28;20068;-94
2022/02/08 17:11:18;;;;;;;11.37;6.13;;;;;;;6.21;43.11;100160.06;5102586;28;20036;-95
2022/02/08 17:16:42;;;;;;;9.98;6.00;;;;;;;6.10;44.38;100174.00;5145441;27;20386;-95
2022/02/08 17:48:30;;;;;;;13.07;6.03;;;;;;;5.04;47.88;100208.34;6296165;22;1629948;-94
2022/02/08 17:50:59;;;;;;;16.25;6.35;;;;;;;4.99;48.21;100207.34;6361078;22;20014;-96
2022/02/08 17:53:25;;;;;;;16.45;6.78;;;;;;;4.86;49.06;100211.53;6363127;22;20019;-94
2022/02/08 17:55:51;;;;;;;24.88;9.98;;;;;;;4.94;47.28;100234.53;6332507;22;20037;-94
2022/02/08 17:58:19;;;;;;;22.27;9.40;;;;;;;4.90;47.28;100224.81;6332819;22;20445;-95
2022/02/08 18:00:46;;;;;;;19.80;9.18;;;;;;;4.97;46.95;100230.19;6332524;22;20015;-95
2022/02/08 18:03:12;;;;;;;27.42;12.25;;;;;;;4.95;48.06;100230.16;6331333;22;20066;-94
2022/02/08 18:05:41;;;;;;;30.88;17.45;;;;;;;5.14;46.09;100234.91;6331500;22;20011;-93
2022/02/08 18:08:11;;;;;;;28.33;15.05;;;;;;;5.19;46.38;100237.63;6331429;22;20042;-93
2022/02/08 18:10:37;;;;;;;21.30;11.38;;;;;;;5.43;45.98;100270.59;6331259;22;20019;-94
2022/02/08 18:13:09;;;;;;;45.70;25.65;;;;;;;5.34;45.50;100242.28;6329833;22;20041;-95
2022/02/08 18:15:35;;;;;;;29.08;17.27;;;;;;;5.41;46.19;100240.66;6331062;22;20018;-94
2022/02/08 18:18:07;;;;;;;35.13;16.23;;;;;;;5.39;45.74;100245.00;6329435;22;20015;-93
2022/02/08 18:20:44;;;;;;;27.17;14.52;;;;;;;5.41;46.61;100262.63;6328222;22;20047;-96
2022/02/08 19:20:01;;;;;;;34.85;18.48;;;;;;;3.83;54.39;100294.44;5105402;27;20426;-94
2022/02/08 19:22:27;;;;;;;35.85;18.63;;;;;;;3.80;53.55;100288.22;5103733;28;20052;-93
2022/02/08 19:24:54;;;;;;;33.85;18.75;;;;;;;3.87;53.81;100304.19;5104357;28;20067;-94
2022/02/08 19:27:20;;;;;;;36.10;18.23;;;;;;;3.77;54.92;100294.28;5103529;28;20036;-94
2022/02/08 19:29:47;;;;;;;34.88;19.40;;;;;;;3.68;55.72;100296.69;5104351;28;20051;-94
2022/02/08 19:32:14;;;;;;;53.67;21.60;;;;;;;3.53;57.92;100307.69;5103958;28;20381;-93
2022/02/08 19:34:43;;;;;;;39.72;20.20;;;;;;;3.42;58.36;100307.41;5101716;28;20094;-93
2022/02/08 19:37:12;;;;;;;41.50;20.83;;;;;;;3.49;59.00;100342.66;5103797;28;20052;-94
2022/02/08 19:39:40;;;;;;;57.35;30.27;;;;;;;3.36;59.31;100327.41;5101893;28;20041;-95
2022/02/08 19:42:08;;;;;;;48.33;26.55;;;;;;;3.18;59.33;100319.91;5101337;28;20409;-94
2022/02/08 19:44:35;;;;;;;45.78;24.73;;;;;;;3.31;59.08;100339.53;5101013;28;20046;-95
2022/02/08 19:47:02;;;;;;;43.55;24.55;;;;;;;3.09;57.98;100328.44;5102803;28;20101;-94
2022/02/08 19:49:28;;;;;;;42.35;23.45;;;;;;;3.11;57.95;100326.75;5103506;28;20040;-94
2022/02/08 19:51:55;;;;;;;42.67;21.52;;;;;;;3.04;57.15;100323.06;5103298;28;20056;-95